Time;durP1;ratioP1;P1;durP2;ratioP2;P2;SDS_P1;SDS_P2;PMS_P1;PMS_P2;Temp;Humidity;BMP_temperature;BMP_pressure;BME280_temperature;BME280_humidity;BME280_pressure;Samples;Min_cycle;Max_cycle;Signal;HPM_P1;HPM_P2
2022/04/06 00:02:20;;;;;;;16.40;11.48;;;;;;;-141.50;100.00;63355.56;5127047;28;20053;-78
2022/04/06 00:04:48;;;;;;;18.52;11.55;;;;;;;-141.50;100.00;63355.56;5130307;28;20137;-79
2022/04/06 00:07:18;;;;;;;16.38;11.25;;;;;;;-141.50;100.00;63355.56;5131807;28;20062;-80
2022/04/06 00:09:44;;;;;;;16.58;11.13;;;;;;;-141.50;100.00;63355.56;5128447;28;20086;-78
2022/04/06 00:12:11;;;;;;;17.70;11.85;;;;;;;-141.50;100.00;63355.56;5096673;28;20054;-79
2022/04/06 00:14:38;;;;;;;17.55;12.13;;;;;;;-141.50;100.00;63355.56;5132284;28;20044;-79
2022/04/06 00:17:05;;;;;;;16.67;12.23;;;;;;;-141.50;100.00;63355.56;5129507;28;20067;-78
2022/04/06 00:19:33;;;;;;;18.95;12.82;;;;;;;-141.50;100.00;63355.56;5113291;28;20048;-78
2022/04/06 00:22:01;;;;;;;17.42;12.43;;;;;;;-141.50;100.00;63355.56;5131417;28;20048;-78
2022/04/06 00:24:27;;;;;;;19.15;13.30;;;;;;;-141.50;100.00;63355.56;5131080;28;20457;-78
2022/04/06 00:26:54;;;;;;;18.02;12.88;;;;;;;-141.50;100.00;63355.56;5131165;28;20107;-79
2022/04/06 00:29:22;;;;;;;18.33;12.93;;;;;;;-141.50;100.00;63355.56;5111765;28;20671;-79
2022/04/06 00:31:49;;;;;;;21.17;13.82;;;;;;;-141.50;100.00;63355.56;5127318;28;20051;-78
2022/04/06 00:34:15;;;;;;;17.67;12.32;;;;;;;-141.50;100.00;63355.56;5126871;28;20613;-77
2022/04/06 00:36:42;;;;;;;23.95;14.68;;;;;;;-141.50;100.00;63355.56;5127432;28;20043;-80
2022/04/06 00:39:09;;;;;;;22.77;14.85;;;;;;;-141.50;100.00;63355.56;5126776;28;20188;-78
2022/04/06 00:41:36;;;;;;;26.35;17.05;;;;;;;-141.50;100.00;63355.56;5121503;28;20715;-77
2022/04/06 00:44:12;;;;;;;26.63;16.80;;;;;;;-141.50;100.00;63355.56;5124064;28;20044;-77
2022/04/06 00:46:43;;;;;;;26.58;17.25;;;;;;;-141.50;100.00;63355.56;5127808;28;20047;-78
2022/04/06 00:49:14;;;;;;;28.77;17.95;;;;;;;-141.50;100.00;63355.56;5126599;28;20085;-79
2022/04/06 00:51:49;;;;;;;24.88;16.73;;;;;;;-141.50;100.00;63355.56;5126285;28;20134;-79
2022/04/06 00:54:19;;;;;;;27.60;17.10;;;;;;;-141.50;100.00;63355.56;5119214;28;20089;-78
2022/04/06 00:56:48;;;;;;;27.55;18.17;;;;;;;-141.50;100.00;63355.56;5118175;28;20054;-77
2022/04/06 00:59:19;;;;;;;30.60;17.88;;;;;;;-141.50;100.00;63355.56;5100330;28;20055;-79
2022/04/06 01:01:48;;;;;;;26.52;16.95;;;;;;;-141.50;100.00;63355.56;5118855;28;20047;-79
2022/04/06 01:04:15;;;;;;;24.30;16.42;;;;;;;-141.50;100.00;63355.56;5098653;28;20155;-78
2022/04/06 01:06:43;;;;;;;26.83;16.95;;;;;;;-141.50;100.00;63355.56;5119774;28;20040;-76
2022/04/06 01:09:10;;;;;;;26.05;16.67;;;;;;;-141.50;100.00;63355.56;5118462;28;20075;-77
2022/04/06 01:11:37;;;;;;;25.38;16.23;;;;;;;-141.50;100.00;63355.56;5117652;28;20120;-76
2022/04/06 01:14:06;;;;;;;24.52;16.40;;;;;;;-141.50;100.00;63355.56;5103578;28;20077;-80
2022/04/06 01:16:35;;;;;;;22.27;15.77;;;;;;;-141.50;100.00;63355.56;5108209;28;20040;-78
2022/04/06 01:19:02;;;;;;;24.30;15.93;;;;;;;-141.50;100.00;63355.56;5108279;28;20064;-78
2022/04/06 01:21:28;;;;;;;24.20;14.57;;;;;;;-141.50;100.00;63355.56;5108139;28;20080;-79
2022/04/06 01:23:58;;;;;;;20.75;14.13;;;;;;;-141.50;100.00;63355.56;5105060;28;20089;-78
2022/04/06 01:26:25;;;;;;;22.00;14.63;;;;;;;-141.50;100.00;63355.56;5105272;28;20082;-78
2022/04/06 01:28:52;;;;;;;20.92;14.25;;;;;;;-141.50;100.00;63355.56;5105569;28;20051;-79
2022/04/06 01:31:18;;;;;;;21.83;13.15;;;;;;;-141.50;100.00;63355.56;5107424;28;20441;-79
2022/04/06 01:33:48;;;;;;;20.77;13.68;;;;;;;-141.50;100.00;63355.56;5108519;28;20121;-78
2022/04/06 01:36:14;;;;;;;20.80;13.15;;;;;;;-141.50;100.00;63355.56;5109988;28;20073;-78
2022/04/06 01:38:41;;;;;;;18.60;12.93;;;;;;;-141.50;100.00;63355.56;5111992;28;20066;-77
2022/04/06 01:41:08;;;;;;;22.33;12.98;;;;;;;-141.50;100.00;63355.56;5108948;28;20059;-79
2022/04/06 01:43:37;;;;;;;19.65;13.05;;;;;;;-141.50;100.00;63355.56;5108996;28;20129;-76
2022/04/06 01:46:04;;;;;;;20.38;13.55;;;;;;;-141.50;100.00;63355.56;5109277;28;20537;-79
2022/04/06 01:48:31;;;;;;;21.00;13.70;;;;;;;-141.50;100.00;63355.56;5111083;28;20156;-79
2022/04/06 01:53:47;;;;;;;21.42;13.32;;;;;;;-141.50;100.00;63355.56;5111100;28;20051;-80
2022/04/06 01:56:14;;;;;;;20.83;13.60;;;;;;;-141.50;100.00;63355.56;5110302;28;20047;-80
2022/04/06 01:58:41;;;;;;;22.73;13.30;;;;;;;-141.50;100.00;63355.56;5111895;28;20044;-79
2022/04/06 02:01:07;;;;;;;19.38;12.85;;;;;;;-141.50;100.00;63355.56;5094306;28;20051;-78
2022/04/06 02:03:34;;;;;;;20.20;12.70;;;;;;;-141.50;100.00;63355.56;5112030;28;20073;-80
2022/04/06 02:06:01;;;;;;;20.95;13.15;;;;;;;-141.50;100.00;63355.56;5110626;28;20048;-78
2022/04/06 02:08:30;;;;;;;20.02;12.80;;;;;;;-141.50;100.00;63355.56;5091115;28;20087;-79
2022/04/06 02:10:56;;;;;;;16.90;11.52;;;;;;;-141.50;100.00;63355.56;5107636;28;20048;-79
2022/04/06 02:13:23;;;;;;;21.25;12.80;;;;;;;-141.50;100.00;63355.56;5111559;28;20063;-77
2022/04/06 02:15:50;;;;;;;18.67;12.23;;;;;;;-141.50;100.00;63355.56;5103937;28;20076;-76
2022/04/06 02:18:17;;;;;;;20.63;12.65;;;;;;;-141.50;100.00;63355.56;5103535;28;20048;-77
2022/04/06 02:20:43;;;;;;;20.17;13.30;;;;;;;-141.50;100.00;63355.56;5106755;28;20048;-79
2022/04/06 02:23:10;;;;;;;20.25;12.98;;;;;;;-141.50;100.00;63355.56;5108470;28;20067;-78
2022/04/06 02:25:37;;;;;;;20.13;13.40;;;;;;;-141.50;100.00;63355.56;5107058;28;20606;-78
2022/04/06 02:28:04;;;;;;;21.77;14.10;;;;;;;-141.50;100.00;63355.56;5108792;28;20044;-78
2022/04/06 02:30:30;;;;;;;24.52;14.65;;;;;;;-141.50;100.00;63355.56;5088860;28;20052;-80
2022/04/06 02:32:57;;;;;;;22.95;14.88;;;;;;;-141.50;100.00;63355.56;5086403;28;20078;-78
2022/04/06 02:35:23;;;;;;;23.45;14.73;;;;;;;-141.50;100.00;63355.56;5108129;28;20416;-77
2022/04/06 02:37:50;;;;;;;26.25;15.48;;;;;;;-141.50;100.00;63355.56;5105166;28;20048;-80
2022/04/06 02:40:17;;;;;;;26.80;16.05;;;;;;;-141.50;100.00;63355.56;5099674;28;20079;-79
2022/04/06 02:42:44;;;;;;;27.52;16.08;;;;;;;-141.50;100.00;63355.56;5099052;28;20083;-80
2022/04/06 02:45:11;;;;;;;27.50;16.52;;;;;;;-141.50;100.00;63355.56;5106574;28;20052;-79
2022/04/06 02:47:44;;;;;;;27.60;17.00;;;;;;;-141.50;100.00;63355.56;5101387;28;20059;-80
2022/04/06 02:50:10;;;;;;;28.25;17.05;;;;;;;-141.50;100.00;63355.56;5077521;28;20052;-78
2022/04/06 02:52:37;;;;;;;28.63;17.02;;;;;;;-141.50;100.00;63355.56;5094006;28;20838;-80
2022/04/06 02:55:03;;;;;;;28.17;17.45;;;;;;;-141.50;100.00;63355.56;5096827;28;20055;-78
2022/04/06 02:57:30;;;;;;;28.17;17.23;;;;;;;-141.50;100.00;63355.56;5092992;28;20063;-78
2022/04/06 02:59:56;;;;;;;30.13;18.30;;;;;;;-141.50;100.00;63355.56;5106156;28;20044;-80
2022/04/06 03:02:23;;;;;;;32.72;17.98;;;;;;;-141.50;100.00;63355.56;5109586;28;20059;-78
2022/04/06 03:04:52;;;;;;;27.85;16.23;;;;;;;-141.50;100.00;63355.56;5091264;28;20048;-79
2022/04/06 03:07:22;;;;;;;28.50;17.52;;;;;;;-141.50;100.00;63355.56;5095914;28;20127;-79
2022/04/06 03:09:51;;;;;;;27.30;16.73;;;;;;;-141.50;100.00;63355.56;5098902;28;20978;-77
2022/04/06 03:12:17;;;;;;;29.35;16.55;;;;;;;-141.50;100.00;63355.56;5111573;28;20051;-80
2022/04/06 03:14:44;;;;;;;27.13;16.13;;;;;;;-141.50;100.00;63355.56;5121466;28;20058;-77
2022/04/06 03:17:11;;;;;;;26.98;15.95;;;;;;;-141.50;100.00;63355.56;5121932;28;20070;-77
2022/04/06 03:19:37;;;;;;;25.80;15.05;;;;;;;-141.50;100.00;63355.56;5121872;28;20051;-78
2022/04/06 03:22:04;;;;;;;27.33;15.60;;;;;;;-141.50;100.00;63355.56;5105637;28;20056;-76
2022/04/06 03:24:31;;;;;;;23.00;14.27;;;;;;;-141.50;100.00;63355.56;5121271;28;20048;-78
2022/04/06 03:26:57;;;;;;;21.40;13.68;;;;;;;-141.50;100.00;63355.56;5116731;28;20047;-78
2022/04/06 03:29:24;;;;;;;24.23;13.85;;;;;;;-141.50;100.00;63355.56;5102143;28;20447;-76
2022/04/06 03:31:53;;;;;;;20.15;13.20;;;;;;;-141.50;100.00;63355.56;5095795;28;20090;-78
2022/04/06 03:34:20;;;;;;;21.10;13.63;;;;;;;-141.50;100.00;63355.56;5099026;28;20058;-77
2022/04/06 03:36:47;;;;;;;22.70;13.40;;;;;;;-141.50;100.00;63355.56;5098723;28;20110;-77
2022/04/06 03:39:16;;;;;;;25.10;13.25;;;;;;;-141.50;100.00;63355.56;5097676;28;20071;-77
2022/04/06 03:41:46;;;;;;;22.85;12.95;;;;;;;-141.50;100.00;63355.56;5096385;28;20056;-77
2022/04/06 03:44:12;;;;;;;23.10;13.13;;;;;;;-141.50;100.00;63355.56;5093626;28;20076;-78
2022/04/06 03:46:39;;;;;;;21.45;13.20;;;;;;;-141.50;100.00;63355.56;5095166;28;20052;-78
2022/04/06 03:49:11;;;;;;;20.92;12.98;;;;;;;-141.50;100.00;63355.56;5077405;28;20080;-77
2022/04/06 03:51:37;;;;;;;21.42;13.25;;;;;;;-141.50;100.00;63355.56;5095461;28;20048;-79
2022/04/06 03:54:04;;;;;;;20.55;13.27;;;;;;;-141.50;100.00;63355.56;5099000;28;20072;-77
2022/04/06 03:56:30;;;;;;;19.90;12.27;;;;;;;-141.50;100.00;63355.56;5099117;28;20101;-77
2022/04/06 03:58:57;;;;;;;21.48;12.40;;;;;;;-141.50;100.00;63355.56;5096869;28;20044;-77
2022/04/06 04:01:24;;;;;;;21.10;12.20;;;;;;;-141.50;100.00;63355.56;5094702;28;20058;-80
2022/04/06 04:03:50;;;;;;;20.15;12.45;;;;;;;-141.50;100.00;63355.56;5095492;28;20052;-79
2022/04/06 04:06:17;;;;;;;20.27;12.35;;;;;;;-141.50;100.00;63355.56;5098224;28;20391;-78
2022/04/06 04:08:43;;;;;;;18.42;11.55;;;;;;;-141.50;100.00;63355.56;5099213;28;20060;-77
2022/04/06 04:11:10;;;;;;;18.77;12.13;;;;;;;-141.50;100.00;63355.56;5100712;28;20591;-78
2022/04/06 04:13:36;;;;;;;17.98;11.40;;;;;;;-141.50;100.00;63355.56;5108459;28;20052;-79
2022/04/06 04:16:04;;;;;;;18.10;10.77;;;;;;;-141.50;100.00;63355.56;5085463;28;20060;-77
2022/04/06 04:18:31;;;;;;;18.98;11.45;;;;;;;-141.50;100.00;63355.56;5103976;28;20108;-78
2022/04/06 04:23:43;;;;;;;19.25;11.15;;;;;;;-141.50;100.00;63355.56;5093465;28;20079;-78
2022/04/06 04:26:09;;;;;;;18.15;10.85;;;;;;;-141.50;100.00;63355.56;5094756;28;20052;-78
2022/04/06 04:28:36;;;;;;;17.20;10.75;;;;;;;-141.50;100.00;63355.56;5097096;28;20429;-77
2022/04/06 04:31:03;;;;;;;14.57;9.82;;;;;;;-141.50;100.00;63355.56;5101756;28;20051;-79
2022/04/06 04:33:30;;;;;;;15.88;10.00;;;;;;;-141.50;100.00;63355.56;5098640;28;20063;-77
2022/04/06 04:35:57;;;;;;;19.05;10.82;;;;;;;-141.50;100.00;63355.56;5098394;28;20044;-78
2022/04/06 04:38:27;;;;;;;18.83;10.35;;;;;;;-141.50;100.00;63355.56;5099377;28;20047;-78
2022/04/06 04:40:54;;;;;;;17.83;10.18;;;;;;;-141.50;100.00;63355.56;5097909;28;20116;-76
2022/04/06 04:43:22;;;;;;;16.98;9.70;;;;;;;-141.50;100.00;63355.56;5098669;28;20064;-77
2022/04/06 04:45:49;;;;;;;13.85;9.05;;;;;;;-141.50;100.00;63355.56;5097366;28;20101;-79
2022/04/06 04:48:15;;;;;;;14.63;9.27;;;;;;;-141.50;100.00;63355.56;5098114;28;20117;-78
2022/04/06 04:50:42;;;;;;;14.00;9.43;;;;;;;-141.50;100.00;63355.56;5096613;28;20048;-77
2022/04/06 04:53:08;;;;;;;12.55;8.52;;;;;;;-141.50;100.00;63355.56;5097629;28;20151;-77
2022/04/06 04:55:35;;;;;;;15.00;9.77;;;;;;;-141.50;100.00;63355.56;5097886;28;20083;-77
2022/04/06 04:58:02;;;;;;;13.57;8.77;;;;;;;-141.50;100.00;63355.56;5098860;28;20071;-78
2022/04/06 05:00:28;;;;;;;13.88;9.18;;;;;;;-141.50;100.00;63355.56;5096976;28;20295;-77
2022/04/06 05:02:55;;;;;;;16.65;8.88;;;;;;;-141.50;100.00;63355.56;5096197;28;20052;-77
2022/04/06 05:05:21;;;;;;;15.85;9.05;;;;;;;-141.50;100.00;63355.56;5097186;28;20048;-77
2022/04/06 05:07:48;;;;;;;18.25;9.63;;;;;;;-141.50;100.00;63355.56;5097967;28;20052;-78
2022/04/06 05:10:14;;;;;;;15.23;9.57;;;;;;;-141.50;100.00;63355.56;5102947;28;20075;-77
2022/04/06 05:12:41;;;;;;;19.08;9.25;;;;;;;-141.50;100.00;63355.56;5110783;28;20077;-78
2022/04/06 05:15:08;;;;;;;14.77;9.75;;;;;;;-141.50;100.00;63355.56;5103475;28;20107;-77
2022/04/06 05:17:35;;;;;;;15.73;9.73;;;;;;;-141.50;100.00;63355.56;5102139;28;20075;-78
2022/04/06 05:20:05;;;;;;;14.07;8.82;;;;;;;-141.50;100.00;63355.56;5119617;28;20044;-77
2022/04/06 05:22:32;;;;;;;15.77;9.63;;;;;;;-141.50;100.00;63355.56;5118124;28;20083;-77
2022/04/06 05:25:00;;;;;;;13.88;9.35;;;;;;;-141.50;100.00;63355.56;5100425;28;20051;-77
2022/04/06 05:27:27;;;;;;;16.08;9.50;;;;;;;-141.50;100.00;63355.56;5100457;28;20075;-78
2022/04/06 05:29:53;;;;;;;14.07;8.65;;;;;;;-141.50;100.00;63355.56;5120256;28;20051;-78
2022/04/06 05:32:19;;;;;;;15.73;9.05;;;;;;;-141.50;100.00;63355.56;5115976;28;20051;-78
2022/04/06 05:34:46;;;;;;;15.50;9.18;;;;;;;-141.50;100.00;63355.56;5097722;28;20083;-77
2022/04/06 05:37:12;;;;;;;15.95;9.02;;;;;;;-141.50;100.00;63355.56;5116090;28;20457;-76
2022/04/06 05:39:39;;;;;;;19.50;10.00;;;;;;;-141.50;100.00;63355.56;5115916;28;20043;-77
2022/04/06 05:42:06;;;;;;;16.05;9.43;;;;;;;-141.50;100.00;63355.56;5098715;28;20052;-77
2022/04/06 05:44:34;;;;;;;16.27;9.95;;;;;;;-141.50;100.00;63355.56;5116309;28;20073;-77
2022/04/06 05:47:01;;;;;;;16.58;9.95;;;;;;;-141.50;100.00;63355.56;5115767;28;20474;-78
2022/04/06 05:49:27;;;;;;;16.55;9.35;;;;;;;-141.50;100.00;63355.56;5114804;28;20321;-77
2022/04/06 05:51:53;;;;;;;14.68;9.20;;;;;;;-141.50;100.00;63355.56;5115473;28;20111;-77
2022/04/06 05:54:20;;;;;;;15.48;9.50;;;;;;;-141.50;100.00;63355.56;5116635;28;20083;-76
2022/04/06 05:56:46;;;;;;;18.52;9.52;;;;;;;-141.50;100.00;63355.56;5098460;28;20081;-77
2022/04/06 05:59:13;;;;;;;13.23;8.40;;;;;;;-141.50;100.00;63355.56;5116016;28;20108;-78
2022/04/06 06:01:39;;;;;;;15.55;8.95;;;;;;;-141.50;100.00;63355.56;5100647;28;20051;-78
2022/04/06 06:04:06;;;;;;;15.35;8.85;;;;;;;-141.50;100.00;63355.56;5115712;28;20118;-76
2022/04/06 06:06:32;;;;;;;15.80;8.02;;;;;;;-141.50;100.00;63355.56;5115046;28;20047;-77
2022/04/06 06:08:59;;;;;;;13.75;8.20;;;;;;;-141.50;100.00;63355.56;5114488;28;20120;-78
2022/04/06 06:11:25;;;;;;;14.68;7.88;;;;;;;-141.50;100.00;63355.56;5105036;28;20143;-80
2022/04/06 06:13:52;;;;;;;13.25;7.20;;;;;;;-141.50;100.00;63355.56;5113433;28;20059;-76
2022/04/06 06:16:18;;;;;;;15.32;7.75;;;;;;;-141.50;100.00;63355.56;5113821;28;20055;-77
2022/04/06 06:18:45;;;;;;;11.68;7.00;;;;;;;-141.50;100.00;63355.56;5113156;28;20048;-78
2022/04/06 06:21:11;;;;;;;11.20;6.80;;;;;;;-141.50;100.00;63355.56;5113690;28;20142;-78
2022/04/06 06:23:38;;;;;;;10.02;6.85;;;;;;;-141.50;100.00;63355.56;5114499;28;20104;-76
2022/04/06 06:26:05;;;;;;;13.25;6.88;;;;;;;-141.50;100.00;63355.56;5117042;28;20056;-78
2022/04/06 06:28:31;;;;;;;13.13;6.85;;;;;;;-141.50;100.00;63355.56;5121451;28;20043;-78
2022/04/06 06:30:58;;;;;;;10.93;6.40;;;;;;;-141.50;100.00;63355.56;5116695;28;20487;-77
2022/04/06 06:33:24;;;;;;;12.23;6.63;;;;;;;-141.50;100.00;63355.56;5117575;28;20168;-77
2022/04/06 06:35:51;;;;;;;9.88;6.40;;;;;;;-141.50;100.00;63355.56;5117744;28;20081;-77
2022/04/06 06:38:17;;;;;;;12.32;6.68;;;;;;;-141.50;100.00;63355.56;5117787;28;20123;-78
2022/04/06 06:40:44;;;;;;;11.13;6.10;;;;;;;-141.50;100.00;63355.56;5113908;28;20289;-79
2022/04/06 06:43:10;;;;;;;12.30;6.57;;;;;;;-141.50;100.00;63355.56;5113944;28;20077;-78
2022/04/06 06:45:37;;;;;;;12.90;6.28;;;;;;;-141.50;100.00;63355.56;5114362;28;20138;-77
2022/04/06 06:48:04;;;;;;;13.23;6.13;;;;;;;-141.50;100.00;63355.56;5114910;28;20050;-77
2022/04/06 06:50:30;;;;;;;12.70;6.15;;;;;;;-141.50;100.00;63355.56;5115363;28;20055;-77
2022/04/06 06:52:57;;;;;;;13.52;6.60;;;;;;;-141.50;100.00;63355.56;5093531;28;20083;-80
2022/04/06 06:55:24;;;;;;;10.63;6.47;;;;;;;-141.50;100.00;63355.56;5112222;28;20495;-77
2022/04/06 06:57:51;;;;;;;13.70;6.18;;;;;;;-141.50;100.00;63355.56;5099068;28;20058;-78
2022/04/06 07:00:18;;;;;;;11.90;6.30;;;;;;;-141.50;100.00;63355.56;5115858;28;20120;-79
2022/04/06 07:02:44;;;;;;;9.80;5.70;;;;;;;-141.50;100.00;63355.56;5116617;28;20047;-75
2022/04/06 07:05:11;;;;;;;13.57;6.57;;;;;;;-141.50;100.00;63355.56;5116936;28;20075;-77
2022/04/06 07:08:07;;;;;;;10.48;6.50;;;;;;;-141.50;100.00;63355.56;5119196;28;20055;-77
2022/04/06 07:10:34;;;;;;;12.10;6.70;;;;;;;-141.50;100.00;63355.56;5099416;28;20043;-78
2022/04/06 07:13:01;;;;;;;11.13;6.63;;;;;;;-141.50;100.00;63355.56;5108862;28;20075;-78
2022/04/06 07:15:27;;;;;;;12.80;6.22;;;;;;;-141.50;100.00;63355.56;5117165;28;20048;-78
2022/04/06 07:17:56;;;;;;;14.23;6.40;;;;;;;-141.50;100.00;63355.56;5124588;28;20047;-78
2022/04/06 07:20:25;;;;;;;10.68;6.07;;;;;;;-141.50;100.00;63355.56;5124914;28;20055;-78
2022/04/06 07:22:52;;;;;;;11.93;6.35;;;;;;;-141.50;100.00;63355.56;5125676;28;20052;-79
2022/04/06 07:25:20;;;;;;;13.02;6.43;;;;;;;-141.50;100.00;63355.56;5125937;28;20077;-78
2022/04/06 07:27:46;;;;;;;15.13;6.63;;;;;;;-141.50;100.00;63355.56;5122038;28;20104;-77
2022/04/06 07:30:14;;;;;;;12.30;6.25;;;;;;;-141.50;100.00;63355.56;5121137;28;20039;-78
2022/04/06 07:32:40;;;;;;;9.32;6.05;;;;;;;-141.50;100.00;63355.56;5123820;28;20056;-78
2022/04/06 07:35:07;;;;;;;10.05;6.22;;;;;;;-141.50;100.00;63355.56;5121186;28;20522;-78
2022/04/06 07:37:39;;;;;;;12.27;6.18;;;;;;;-141.50;100.00;63355.56;5122450;28;20516;-79
2022/04/06 07:40:10;;;;;;;13.27;5.93;;;;;;;-141.50;100.00;63355.56;5118368;28;20043;-79
2022/04/06 07:42:37;;;;;;;13.32;6.13;;;;;;;-141.50;100.00;63355.56;5123995;28;20059;-79
2022/04/06 07:45:09;;;;;;;11.82;6.45;;;;;;;-141.50;100.00;63355.56;5125220;28;20753;-77
2022/04/06 07:47:40;;;;;;;15.07;6.50;;;;;;;-141.50;100.00;63355.56;5126408;28;20051;-79
2022/04/06 07:50:07;;;;;;;12.90;6.78;;;;;;;-141.50;100.00;63355.56;5130128;28;20510;-80
2022/04/06 07:52:35;;;;;;;10.30;6.15;;;;;;;-141.50;100.00;63355.56;5127642;28;20056;-77
2022/04/06 07:55:05;;;;;;;11.07;6.57;;;;;;;-141.50;100.00;63355.56;5126806;28;20519;-77
2022/04/06 07:57:31;;;;;;;11.02;6.55;;;;;;;-141.50;100.00;63355.56;5126810;28;20205;-77
2022/04/06 08:00:00;;;;;;;13.43;6.47;;;;;;;-141.50;100.00;63355.56;5130661;28;20047;-78
2022/04/06 08:02:26;;;;;;;12.27;7.10;;;;;;;-141.50;100.00;63355.56;5124791;28;20382;-78
2022/04/06 08:04:53;;;;;;;11.18;7.22;;;;;;;-141.50;100.00;63355.56;5126458;28;20055;-77
2022/04/06 08:07:20;;;;;;;15.23;7.97;;;;;;;-141.50;100.00;63355.56;5124149;28;20113;-79
2022/04/06 08:09:46;;;;;;;15.75;7.22;;;;;;;-141.50;100.00;63355.56;5103524;28;20051;-79
2022/04/06 08:12:13;;;;;;;14.05;7.82;;;;;;;-141.50;100.00;63355.56;5116168;28;20263;-80
2022/04/06 08:14:40;;;;;;;13.13;7.95;;;;;;;-141.50;100.00;63355.56;5126710;28;20048;-78
2022/04/06 08:17:06;;;;;;;14.07;7.82;;;;;;;-141.50;100.00;63355.56;5130446;28;20052;-79
2022/04/06 08:19:33;;;;;;;16.17;9.00;;;;;;;-141.50;100.00;63355.56;5130990;28;20153;-78
2022/04/06 08:21:59;;;;;;;15.73;8.68;;;;;;;-141.50;100.00;63355.56;5111845;28;20089;-80
2022/04/06 08:24:27;;;;;;;15.07;8.20;;;;;;;-141.50;100.00;63355.56;5129848;28;20035;-76
2022/04/06 08:26:53;;;;;;;15.90;8.52;;;;;;;-141.50;100.00;63355.56;5127504;28;20044;-81
2022/04/06 08:29:20;;;;;;;13.40;8.07;;;;;;;-141.50;100.00;63355.56;5129569;28;20048;-79
2022/04/06 08:31:47;;;;;;;12.02;7.00;;;;;;;-141.50;100.00;63355.56;5120623;28;20048;-78
2022/04/06 08:34:14;;;;;;;11.50;7.05;;;;;;;-141.50;100.00;63355.56;5116614;28;20092;-77
2022/04/06 08:36:43;;;;;;;11.02;6.75;;;;;;;-141.50;100.00;63355.56;5119779;28;20589;-77
2022/04/06 08:39:09;;;;;;;10.68;5.88;;;;;;;-141.50;100.00;63355.56;5119321;28;20039;-79
2022/04/06 08:41:36;;;;;;;12.32;5.57;;;;;;;-141.50;100.00;63355.56;5121156;28;20079;-79
2022/04/06 08:44:03;;;;;;;8.77;4.90;;;;;;;-141.50;100.00;63355.56;5101942;28;20052;-75
2022/04/06 08:46:35;;;;;;;10.80;5.28;;;;;;;-141.50;100.00;63355.56;5120488;28;20070;-79
2022/04/06 08:49:02;;;;;;;10.32;5.20;;;;;;;-141.50;100.00;63355.56;5118927;28;20051;-76
2022/04/06 08:51:29;;;;;;;12.48;4.57;;;;;;;-141.50;100.00;63355.56;5118199;28;20062;-78
2022/04/06 08:53:57;;;;;;;7.47;4.28;;;;;;;-141.50;100.00;63355.56;5122047;28;20070;-76
2022/04/06 08:56:25;;;;;;;10.32;5.43;;;;;;;-141.50;100.00;63355.56;5121986;28;20047;-76
2022/04/06 08:58:51;;;;;;;8.30;4.40;;;;;;;-141.50;100.00;63355.56;5120299;28;20561;-78
2022/04/06 09:01:21;;;;;;;7.65;4.00;;;;;;;-141.50;100.00;63355.56;5120750;28;20047;-76
2022/04/06 09:03:49;;;;;;;8.68;4.13;;;;;;;-141.50;100.00;63355.56;5123707;28;20048;-80
2022/04/06 09:06:18;;;;;;;6.22;4.07;;;;;;;-141.50;100.00;63355.56;5108362;28;20082;-77
2022/04/06 09:08:48;;;;;;;9.68;4.43;;;;;;;-141.50;100.00;63355.56;5124151;28;20404;-77
2022/04/06 09:11:20;;;;;;;9.23;4.35;;;;;;;-141.50;100.00;63355.56;5115952;28;20059;-77
2022/04/06 09:13:55;;;;;;;9.10;4.05;;;;;;;-141.50;100.00;63355.56;5120337;28;20123;-77
2022/04/06 09:16:24;;;;;;;9.43;4.15;;;;;;;-141.50;100.00;63355.56;5122561;28;20074;-76
2022/04/06 09:18:51;;;;;;;9.93;3.65;;;;;;;-141.50;100.00;63355.56;5119340;28;20072;-76
2022/04/06 09:21:18;;;;;;;8.35;4.30;;;;;;;-141.50;100.00;63355.56;5118918;28;20071;-76
2022/04/06 09:23:49;;;;;;;7.30;3.63;;;;;;;-141.50;100.00;63355.56;5122271;28;20567;-77
2022/04/06 09:26:22;;;;;;;7.63;3.60;;;;;;;-141.50;100.00;63355.56;5122185;28;20051;-77
2022/04/06 09:28:50;;;;;;;11.38;3.88;;;;;;;-141.50;100.00;63355.56;5123710;28;20052;-80
2022/04/06 09:31:18;;;;;;;10.38;4.38;;;;;;;-141.50;100.00;63355.56;5118527;28;20077;-77
2022/04/06 09:33:59;;;;;;;10.27;4.30;;;;;;;-141.50;100.00;63355.56;5119747;28;20123;-78
2022/04/06 09:36:30;;;;;;;7.03;3.88;;;;;;;-141.50;100.00;63355.56;5120647;28;20189;-79
2022/04/06 09:38:57;;;;;;;10.63;3.88;;;;;;;-141.50;100.00;63355.56;5112981;28;20468;-78
2022/04/06 09:41:25;;;;;;;12.20;4.10;;;;;;;-141.50;100.00;63355.56;5093474;28;20075;-78
2022/04/06 09:43:53;;;;;;;7.72;3.70;;;;;;;-141.50;100.00;63355.56;5094340;28;20063;-77
2022/04/06 09:49:10;;;;;;;7.72;4.43;;;;;;;-141.50;100.00;63355.56;5122800;28;20082;-77
2022/04/06 09:51:38;;;;;;;8.25;4.28;;;;;;;-141.50;100.00;63355.56;5113949;28;20360;-78
2022/04/06 09:54:07;;;;;;;9.48;4.70;;;;;;;-141.50;100.00;63355.56;5110760;28;20051;-78
2022/04/06 09:56:36;;;;;;;7.35;3.88;;;;;;;-141.50;100.00;63355.56;5117471;28;20051;-76
2022/04/06 09:59:07;;;;;;;7.38;4.53;;;;;;;-141.50;100.00;63355.56;5118278;28;20051;-79
2022/04/06 10:01:37;;;;;;;8.07;4.40;;;;;;;-141.50;100.00;63355.56;5120853;28;20084;-79
2022/04/06 10:04:11;;;;;;;7.85;4.60;;;;;;;-141.50;100.00;63355.56;5118163;28;20063;-78
2022/04/06 10:06:39;;;;;;;7.30;4.03;;;;;;;-141.50;100.00;63355.56;5121239;28;20048;-78
2022/04/06 10:09:09;;;;;;;8.00;4.20;;;;;;;-141.50;100.00;63355.56;5120556;28;20047;-79
2022/04/06 10:11:38;;;;;;;8.75;4.32;;;;;;;-141.50;100.00;63355.56;5111216;28;20510;-78
2022/04/06 10:14:08;;;;;;;9.13;4.68;;;;;;;-141.50;100.00;63355.56;5122219;28;20055;-80
2022/04/06 10:16:38;;;;;;;11.18;5.30;;;;;;;-141.50;100.00;63355.56;5120115;28;20059;-79
2022/04/06 10:19:07;;;;;;;8.00;4.53;;;;;;;-141.50;100.00;63355.56;5116423;28;20120;-77
2022/04/06 10:21:39;;;;;;;11.07;5.05;;;;;;;-141.50;100.00;63355.56;5119083;28;20498;-77
2022/04/06 10:24:29;;;;;;;9.23;4.53;;;;;;;-141.50;100.00;63355.56;5099204;28;20047;-78
2022/04/06 10:27:17;;;;;;;8.23;4.38;;;;;;;-141.50;100.00;63355.56;5116920;28;20047;-76
2022/04/06 10:30:05;;;;;;;9.30;4.97;;;;;;;-141.50;100.00;63355.56;5118893;28;20131;-75
2022/04/06 10:32:37;;;;;;;9.30;5.05;;;;;;;-141.50;100.00;63355.56;5115204;28;20056;-76
2022/04/06 10:35:21;;;;;;;8.45;4.75;;;;;;;-141.50;100.00;63355.56;5113854;28;20120;-77
2022/04/06 10:37:49;;;;;;;8.40;4.95;;;;;;;-141.50;100.00;63355.56;5112476;28;20053;-78
2022/04/06 10:40:16;;;;;;;9.98;4.75;;;;;;;-141.50;100.00;63355.56;5113059;28;20075;-77
2022/04/06 10:42:45;;;;;;;12.27;5.65;;;;;;;-141.50;100.00;63355.56;5113710;28;20047;-77
2022/04/06 10:45:30;;;;;;;10.40;5.95;;;;;;;-141.50;100.00;63355.56;5091579;28;20050;-79
2022/04/06 10:48:10;;;;;;;9.00;4.85;;;;;;;-141.50;100.00;63355.56;5093662;28;20483;-77
2022/04/06 10:50:37;;;;;;;9.88;5.32;;;;;;;-141.50;100.00;63355.56;5095668;28;20052;-78
2022/04/06 10:53:19;;;;;;;8.45;5.18;;;;;;;-141.50;100.00;63355.56;5090828;28;20056;-78
2022/04/06 10:56:03;;;;;;;9.80;5.25;;;;;;;-141.50;100.00;63355.56;5090704;28;20260;-78
2022/04/06 10:58:56;;;;;;;10.40;6.03;;;;;;;-141.50;100.00;63355.56;5089556;28;20454;-78
2022/04/06 11:01:26;;;;;;;9.38;5.60;;;;;;;-141.50;100.00;63355.56;5080585;28;20466;-78
2022/04/06 11:04:15;;;;;;;11.48;5.63;;;;;;;-141.50;100.00;63355.56;5088932;28;20466;-77
2022/04/06 11:06:41;;;;;;;9.10;5.13;;;;;;;-141.50;100.00;63355.56;5090093;28;20101;-77
2022/04/06 11:12:28;;;;;;;9.82;4.93;;;;;;;-141.50;100.00;63355.56;5026678;28;20057;-79
2022/04/06 11:14:57;;;;;;;8.75;4.47;;;;;;;-141.50;100.00;63355.56;5067871;28;20056;-78
2022/04/06 11:17:32;;;;;;;9.75;4.93;;;;;;;-141.50;100.00;63355.56;5072072;28;20044;-76